Amber, New York
Current Conditions -  °F | °C
As of 2:54 PM on Monday 22 Dec 2014 (Local Time) from KSYR Reporting Station
Scattered Clouds Scattered Clouds  
Wind Chill: 31°   Ceiling: Unl
Heat Index: 39°   Visibility: 10mi
Dew Point: 29°   Wind: 13mph
Humidity: 67%   Direction: 140°SE
Pressure: 30.17"   Gusts: NA
Location:  42.889°N, 76.2819°W
Report Text: KSYR 221954Z 14011KT 10SM SCT027 SCT200 04/M02 A3017 RMK AO2 SLP216 T00391017
Loading
Personal Weather Stations






























Interactive Weather Map New forecast layout! Learn more

10-Day Weather Forecast

Advertisements
Track Severe Weather on mobile